Terminal Aerodrome Forecast
Issued by NWS

Current Version | Previous Version | Graphics & Text | Print | Product List | Glossary On
Versions: 1 2 3 4 5 6 7 8 9 10 11 12 13 14 15 16 17 18 19 20 21
000
FTUS41 KRNK 281138
TAFLWB
TAF
KLWB 281138Z 2812/2912 00000KT P6SM BKN250
      TEMPO 2812/2813 1SM BR BKN002
     FM281600 23007KT P6SM BKN250
     FM290000 24003KT P6SM SCT100 BKN250
     FM290700 24006KT P6SM -SHRA SCT035 OVC100
     FM291000 29008KT 4SM -SHRA SCT012 OVC035=

USA.gov is the U.S. government's official web portal to all federal, state and local government web resources and services.